Time;durP1;ratioP1;P1;durP2;ratioP2;P2;SDS_P1;SDS_P2;PMS_P1;PMS_P2;Temp;Humidity;BMP_temperature;BMP_pressure;BME280_temperature;BME280_humidity;BME280_pressure;Samples;Min_cycle;Max_cycle;Signal;HPM_P1;HPM_P2
2023/09/25 00:01:47;;;;;;;3.55;2.45;;;;;;;12.78;78.94;102070.28;5089454;28;20031;-71
2023/09/25 00:04:13;;;;;;;5.63;2.50;;;;;;;12.82;79.20;102068.97;5088219;28;20024;-71
2023/09/25 00:06:38;;;;;;;5.05;2.80;;;;;;;12.78;78.86;102080.94;5088923;28;20028;-71
2023/09/25 00:09:05;;;;;;;3.67;2.63;;;;;;;12.73;79.03;102075.25;5100672;28;20609;-71
2023/09/25 00:11:30;;;;;;;3.63;2.58;;;;;;;12.77;79.33;102085.44;5086403;28;20038;-71
2023/09/25 00:13:56;;;;;;;4.72;2.70;;;;;;;12.68;79.13;102079.16;5093766;28;20032;-71
2023/09/25 00:16:22;;;;;;;4.65;2.50;;;;;;;12.73;79.35;102081.41;5087794;28;20027;-71
2023/09/25 00:18:47;;;;;;;4.15;3.00;;;;;;;12.73;79.14;102080.56;5097550;28;20015;-71
2023/09/25 00:21:13;;;;;;;6.70;2.92;;;;;;;12.71;78.94;102081.53;5087172;28;20069;-71
2023/09/25 00:23:38;;;;;;;5.00;2.70;;;;;;;12.70;78.84;102074.53;5089574;28;20028;-72
2023/09/25 00:26:08;;;;;;;8.18;2.72;;;;;;;12.68;78.99;102086.34;5095261;28;20036;-71
2023/09/25 00:28:34;;;;;;;5.00;2.83;;;;;;;12.69;78.77;102086.19;5090692;28;20565;-71
2023/09/25 00:30:59;;;;;;;4.00;2.70;;;;;;;12.65;78.77;102081.31;5099320;28;20110;-71
2023/09/25 00:33:26;;;;;;;4.07;2.40;;;;;;;12.63;78.83;102085.97;5099168;28;20032;-71
2023/09/25 00:35:51;;;;;;;4.50;2.45;;;;;;;12.59;78.78;102087.25;5098454;28;20493;-71
2023/09/25 00:38:16;;;;;;;5.72;2.58;;;;;;;12.61;78.97;102087.94;5089156;28;20023;-72
2023/09/25 00:40:42;;;;;;;3.28;2.50;;;;;;;12.58;79.09;102089.09;5096897;28;20028;-70
2023/09/25 00:43:11;;;;;;;4.57;2.60;;;;;;;12.57;79.32;102081.25;5098138;28;20015;-71
2023/09/25 00:45:37;;;;;;;3.92;2.80;;;;;;;12.55;79.07;102088.56;5092036;28;20477;-71
2023/09/25 00:48:02;;;;;;;4.88;2.85;;;;;;;12.53;79.34;102091.38;5086330;28;20074;-70
2023/09/25 00:50:30;;;;;;;4.05;2.58;;;;;;;12.49;79.21;102084.69;5102976;28;20047;-71
2023/09/25 00:52:56;;;;;;;5.55;2.58;;;;;;;12.47;78.98;102086.66;5094785;28;20115;-71
2023/09/25 00:55:21;;;;;;;4.20;2.63;;;;;;;12.49;78.96;102087.34;5096574;28;20100;-71
2023/09/25 00:57:50;;;;;;;6.20;2.92;;;;;;;12.48;79.06;102088.34;5086332;28;20024;-71
2023/09/25 01:00:17;;;;;;;4.82;2.80;;;;;;;12.48;78.96;102087.50;5101076;27;20022;-71
2023/09/25 01:02:43;;;;;;;5.75;2.83;;;;;;;12.47;79.23;102092.00;5098012;28;20050;-72
2023/09/25 01:05:08;;;;;;;3.88;2.80;;;;;;;12.45;79.14;102093.97;5092697;28;20654;-71
2023/09/25 01:07:35;;;;;;;5.03;2.60;;;;;;;12.43;78.82;102093.25;5095776;28;20519;-72
2023/09/25 01:10:14;;;;;;;3.80;2.72;;;;;;;12.45;78.79;102098.47;5092459;28;20374;-71
2023/09/25 01:12:40;;;;;;;4.70;2.88;;;;;;;12.41;78.77;102100.56;5093061;28;20027;-71
2023/09/25 01:15:06;;;;;;;6.10;2.88;;;;;;;12.40;78.84;102102.41;5094351;28;20308;-71
2023/09/25 01:17:34;;;;;;;6.78;3.03;;;;;;;12.40;78.77;102097.06;5089987;28;20388;-71
2023/09/25 01:20:01;;;;;;;5.30;2.90;;;;;;;12.32;79.08;102090.84;5090949;28;20020;-71
2023/09/25 01:22:26;;;;;;;4.57;2.58;;;;;;;12.35;79.01;102095.84;5081219;28;20495;-71
2023/09/25 01:24:51;;;;;;;5.95;2.97;;;;;;;12.34;78.89;102100.34;5100100;28;20090;-71
2023/09/25 01:27:17;;;;;;;4.03;2.90;;;;;;;12.34;78.85;102091.53;5091832;28;20023;-71
2023/09/25 01:29:42;;;;;;;5.65;3.05;;;;;;;12.34;78.89;102088.84;5091108;28;20054;-71
2023/09/25 01:32:08;;;;;;;5.20;3.05;;;;;;;12.32;79.12;102091.66;5092152;28;20049;-71
2023/09/25 01:34:34;;;;;;;4.75;2.80;;;;;;;12.31;79.09;102091.81;5095320;28;20104;-71
2023/09/25 01:36:59;;;;;;;4.93;2.83;;;;;;;12.30;79.02;102087.47;5093381;28;20444;-71
2023/09/25 01:39:24;;;;;;;4.13;2.72;;;;;;;12.28;79.06;102087.63;5094942;28;20032;-71
2023/09/25 01:41:50;;;;;;;4.78;2.75;;;;;;;12.28;78.91;102092.97;5090737;28;20020;-71
2023/09/25 01:44:15;;;;;;;4.68;2.80;;;;;;;12.26;78.81;102075.47;5088723;28;20024;-71
2023/09/25 01:46:40;;;;;;;5.13;3.35;;;;;;;12.22;78.85;102076.75;5081014;28;20027;-71
2023/09/25 01:49:07;;;;;;;5.07;2.80;;;;;;;12.22;78.77;102080.25;5094779;28;20031;-71
2023/09/25 01:51:32;;;;;;;6.38;3.13;;;;;;;12.20;79.30;102090.22;5091899;28;20024;-71
2023/09/25 01:53:58;;;;;;;5.88;2.60;;;;;;;12.18;79.02;102089.53;5087506;28;20096;-71
2023/09/25 01:56:23;;;;;;;5.45;3.13;;;;;;;12.14;79.19;102082.81;5086273;28;20119;-71
2023/09/25 01:58:48;;;;;;;5.00;2.90;;;;;;;12.15;79.17;102084.53;5083727;28;20021;-71
2023/09/25 02:01:13;;;;;;;4.80;2.88;;;;;;;12.14;79.17;102079.31;5089979;28;20053;-70
2023/09/25 02:03:41;;;;;;;6.78;3.45;;;;;;;12.12;79.04;102067.97;5092706;28;20108;-70
2023/09/25 02:06:07;;;;;;;4.15;2.88;;;;;;;12.10;79.11;102079.63;5091914;28;20035;-70
2023/09/25 02:08:33;;;;;;;6.05;3.15;;;;;;;12.09;78.99;102071.78;5101516;28;20023;-70
2023/09/25 02:10:58;;;;;;;4.90;2.70;;;;;;;12.07;79.31;102074.59;5101377;28;20035;-71
2023/09/25 02:13:23;;;;;;;7.10;3.10;;;;;;;12.04;78.87;102072.25;5100206;28;20035;-71
2023/09/25 02:15:49;;;;;;;5.93;2.92;;;;;;;12.03;78.98;102070.56;5090874;28;20035;-71
2023/09/25 02:18:14;;;;;;;7.07;2.97;;;;;;;12.02;78.96;102073.38;5085373;28;20027;-71
2023/09/25 02:20:39;;;;;;;4.20;2.75;;;;;;;11.98;79.24;102064.84;5091841;28;20085;-71
2023/09/25 02:23:05;;;;;;;7.57;3.10;;;;;;;11.97;78.96;102065.00;5085200;28;20496;-70
2023/09/25 02:25:30;;;;;;;4.72;2.90;;;;;;;11.97;79.06;102073.81;5087554;28;20027;-70
2023/09/25 02:27:56;;;;;;;5.10;3.03;;;;;;;11.94;79.07;102066.16;5092986;28;20031;-70
2023/09/25 02:30:21;;;;;;;5.13;3.20;;;;;;;11.93;79.31;102064.47;5099840;28;20061;-70
2023/09/25 02:32:47;;;;;;;4.55;3.10;;;;;;;11.92;79.16;102060.13;5089162;28;20491;-71
2023/09/25 02:35:13;;;;;;;5.95;2.75;;;;;;;11.92;79.27;102059.28;5096962;28;20615;-70
2023/09/25 02:37:40;;;;;;;7.40;3.15;;;;;;;11.89;79.18;102063.09;5091059;28;20484;-70
2023/09/25 02:40:13;;;;;;;6.68;3.17;;;;;;;11.87;79.25;102066.91;5090541;28;20058;-70
2023/09/25 02:42:38;;;;;;;6.45;3.03;;;;;;;11.85;79.03;102061.69;5088150;28;20034;-70
2023/09/25 02:45:03;;;;;;;3.58;2.88;;;;;;;11.85;79.06;102053.72;5091688;28;20111;-70
2023/09/25 02:47:29;;;;;;;4.90;2.90;;;;;;;11.85;79.19;102066.19;5091128;28;20563;-70
2023/09/25 02:49:55;;;;;;;4.93;3.17;;;;;;;11.81;79.34;102060.31;5090654;28;20115;-71
2023/09/25 02:52:20;;;;;;;4.97;2.83;;;;;;;11.81;78.93;102064.81;5098674;28;20023;-71
2023/09/25 02:54:45;;;;;;;3.83;3.00;;;;;;;11.81;79.68;102054.16;5092206;28;20036;-70
2023/09/25 02:57:10;;;;;;;5.82;3.30;;;;;;;11.79;79.10;102055.16;5093885;28;20389;-70
2023/09/25 02:59:36;;;;;;;4.53;3.10;;;;;;;11.78;78.83;102056.13;5090134;28;20069;-71
2023/09/25 03:02:02;;;;;;;5.35;2.63;;;;;;;11.76;78.82;102060.75;5092508;28;20032;-71
2023/09/25 03:04:27;;;;;;;3.92;2.78;;;;;;;11.77;79.23;102061.56;5090337;28;20024;-71
2023/09/25 03:06:53;;;;;;;4.05;2.78;;;;;;;11.75;79.13;102063.56;5088703;28;20037;-71
2023/09/25 03:09:18;;;;;;;4.85;2.90;;;;;;;11.74;79.32;102064.53;5100597;28;20031;-70
2023/09/25 03:11:43;;;;;;;6.15;2.90;;;;;;;11.72;79.25;102061.19;5088377;28;20639;-70
2023/09/25 03:14:08;;;;;;;5.75;2.92;;;;;;;11.72;79.52;102063.84;5096338;28;20031;-71
2023/09/25 03:16:34;;;;;;;5.05;3.00;;;;;;;11.71;79.40;102065.66;5082851;28;20032;-71
2023/09/25 03:18:59;;;;;;;5.32;2.97;;;;;;;11.69;79.43;102067.66;5088680;28;20431;-71
2023/09/25 03:21:24;;;;;;;6.75;3.08;;;;;;;11.72;79.45;102064.69;5094910;28;20498;-71
2023/09/25 03:23:49;;;;;;;6.60;3.50;;;;;;;11.68;79.41;102062.47;5092311;28;20549;-70
2023/09/25 03:26:20;;;;;;;5.75;2.88;;;;;;;11.69;79.10;102070.31;5085510;28;20035;-71
2023/09/25 03:28:46;;;;;;;4.50;2.97;;;;;;;11.68;79.52;102065.97;5085330;28;20021;-71
2023/09/25 03:31:12;;;;;;;4.03;3.20;;;;;;;11.69;79.36;102067.66;5084792;28;20030;-71
2023/09/25 03:33:39;;;;;;;7.93;3.22;;;;;;;11.68;79.17;102063.31;5097807;28;20026;-70
2023/09/25 03:36:04;;;;;;;6.28;3.35;;;;;;;11.68;79.09;102065.13;5099847;28;20028;-72
2023/09/25 03:38:30;;;;;;;4.65;2.95;;;;;;;11.70;79.17;102065.81;5090738;28;20035;-70
2023/09/25 03:40:55;;;;;;;5.45;3.08;;;;;;;11.70;79.09;102060.50;5090391;28;20529;-70
2023/09/25 03:43:21;;;;;;;6.13;3.03;;;;;;;11.70;79.15;102063.16;5088473;28;20537;-70
2023/09/25 03:45:47;;;;;;;5.07;2.95;;;;;;;11.70;78.96;102065.81;5095740;28;20100;-71
2023/09/25 03:48:12;;;;;;;4.00;2.83;;;;;;;11.67;78.99;102060.81;5102002;28;20036;-70
2023/09/25 03:50:37;;;;;;;4.75;3.03;;;;;;;11.68;79.36;102059.81;5085961;28;20150;-71
2023/09/25 03:53:03;;;;;;;5.60;3.00;;;;;;;11.67;78.98;102066.13;5079844;28;20504;-70
2023/09/25 03:55:29;;;;;;;4.88;2.85;;;;;;;11.63;79.34;102054.94;5087120;28;20035;-71
2023/09/25 03:57:54;;;;;;;4.57;3.05;;;;;;;11.64;79.37;102066.41;5087582;28;20028;-70
2023/09/25 04:00:20;;;;;;;10.80;3.20;;;;;;;11.65;78.99;102070.75;5095036;28;20028;-70
2023/09/25 04:02:46;;;;;;;7.07;3.30;;;;;;;11.63;79.24;102072.72;5097401;28;20030;-71
2023/09/25 04:05:12;;;;;;;6.13;3.28;;;;;;;11.63;78.96;102067.41;5093710;28;20102;-70
2023/09/25 04:07:37;;;;;;;5.32;2.95;;;;;;;11.64;79.30;102066.41;5097307;28;20023;-70
2023/09/25 04:10:03;;;;;;;5.20;2.85;;;;;;;11.63;78.98;102064.75;5100947;28;20029;-70
2023/09/25 04:12:29;;;;;;;8.02;3.20;;;;;;;11.64;78.91;102066.41;5095691;28;20027;-70
2023/09/25 04:14:55;;;;;;;4.18;3.00;;;;;;;11.62;78.81;102069.22;5095505;28;20473;-70
2023/09/25 04:17:21;;;;;;;6.43;3.08;;;;;;;11.61;78.98;102072.03;5107198;28;20015;-71
2023/09/25 04:19:49;;;;;;;5.55;2.95;;;;;;;11.59;78.89;102076.66;5102699;28;20026;-70
2023/09/25 04:22:14;;;;;;;5.53;3.00;;;;;;;11.59;79.32;102074.00;5087216;28;20081;-70
2023/09/25 04:24:39;;;;;;;5.32;3.22;;;;;;;11.58;78.95;102075.00;5090181;28;20027;-70
2023/09/25 04:27:05;;;;;;;6.40;3.13;;;;;;;11.58;79.37;102078.50;5097423;28;20028;-70
2023/09/25 04:29:30;;;;;;;4.55;3.00;;;;;;;11.58;79.01;102072.34;5093223;28;20022;-70
2023/09/25 04:31:56;;;;;;;7.88;2.95;;;;;;;11.55;79.01;102069.94;5094434;28;20600;-70
2023/09/25 04:34:21;;;;;;;6.43;3.40;;;;;;;11.59;79.29;102082.00;5109264;28;20055;-70
2023/09/25 04:36:46;;;;;;;5.88;3.17;;;;;;;11.58;79.25;102081.16;5101004;28;20020;-70
2023/09/25 04:39:16;;;;;;;5.65;3.40;;;;;;;11.58;78.94;102082.97;5093227;28;20607;-71
2023/09/25 04:41:42;;;;;;;4.68;2.90;;;;;;;11.60;79.05;102083.66;5105432;28;20505;-70
2023/09/25 04:44:07;;;;;;;6.03;2.90;;;;;;;11.59;78.95;102085.50;5103379;28;20063;-71
2023/09/25 04:46:33;;;;;;;4.72;2.80;;;;;;;11.60;79.36;102081.00;5103631;28;20027;-70
2023/09/25 04:49:00;;;;;;;4.22;2.95;;;;;;;11.60;79.28;102086.31;5087883;28;20024;-70
2023/09/25 04:51:25;;;;;;;6.45;3.03;;;;;;;11.58;79.07;102078.50;5083309;28;20058;-71
2023/09/25 04:53:50;;;;;;;4.72;3.17;;;;;;;11.61;79.12;102083.50;5081393;28;20153;-70
2023/09/25 04:56:20;;;;;;;4.90;3.13;;;;;;;11.63;79.06;102091.34;5100054;28;20028;-70
2023/09/25 04:58:46;;;;;;;5.00;3.03;;;;;;;11.60;78.87;102079.19;5102982;28;20401;-70
2023/09/25 05:01:11;;;;;;;6.30;2.83;;;;;;;11.62;78.51;102090.50;5098913;28;20028;-70
2023/09/25 05:03:36;;;;;;;5.72;3.15;;;;;;;11.62;78.91;102095.84;5098413;28;20104;-70
2023/09/25 05:06:01;;;;;;;6.05;3.10;;;;;;;11.63;78.67;102096.66;5103947;28;20031;-70
2023/09/25 05:08:27;;;;;;;7.05;2.88;;;;;;;11.62;78.48;102090.50;5082398;28;20031;-71
2023/09/25 05:10:52;;;;;;;5.72;3.08;;;;;;;11.61;78.95;102095.97;5099061;28;20067;-70
2023/09/25 05:13:17;;;;;;;5.47;3.10;;;;;;;11.59;78.89;102089.97;5096682;28;20023;-70
2023/09/25 05:15:42;;;;;;;6.80;3.13;;;;;;;11.61;78.66;102098.66;5094097;28;20032;-70
2023/09/25 05:18:08;;;;;;;5.47;3.15;;;;;;;11.60;78.88;102091.66;5100163;28;20031;-71
2023/09/25 05:20:34;;;;;;;3.92;2.85;;;;;;;11.60;78.86;102096.97;5100325;28;20031;-70
2023/09/25 05:22:59;;;;;;;5.70;3.15;;;;;;;11.60;78.98;102099.63;5105696;28;20187;-70
2023/09/25 05:25:26;;;;;;;5.30;2.72;;;;;;;11.60;78.42;102097.81;5095065;28;20653;-70
2023/09/25 05:27:54;;;;;;;5.00;2.60;;;;;;;11.60;78.58;102099.63;5104546;28;20373;-71
2023/09/25 05:30:20;;;;;;;3.22;2.70;;;;;;;11.58;78.69;102088.28;5088167;28;20047;-70
2023/09/25 05:32:48;;;;;;;5.70;2.88;;;;;;;11.60;78.60;102094.31;5088986;28;20036;-71
2023/09/25 05:35:14;;;;;;;6.05;2.92;;;;;;;11.58;78.53;102094.47;5101309;28;20035;-71
2023/09/25 05:37:41;;;;;;;4.10;2.80;;;;;;;11.58;78.59;102094.47;5100098;28;20019;-71
2023/09/25 05:40:12;;;;;;;5.50;2.90;;;;;;;11.58;79.01;102097.13;5102722;28;20377;-70
2023/09/25 05:42:39;;;;;;;5.82;3.13;;;;;;;11.57;78.94;102103.44;5104714;28;20027;-70
2023/09/25 05:45:06;;;;;;;4.38;3.00;;;;;;;11.60;78.87;102113.78;5093518;28;20040;-71
2023/09/25 05:47:32;;;;;;;5.60;2.75;;;;;;;11.61;78.45;102110.13;5102938;28;20105;-70
2023/09/25 05:49:58;;;;;;;5.00;2.97;;;;;;;11.61;78.86;102115.44;5096394;28;20020;-70
2023/09/25 05:52:23;;;;;;;5.47;3.00;;;;;;;11.58;78.85;102105.09;5095994;28;20047;-71
2023/09/25 05:54:49;;;;;;;4.18;2.78;;;;;;;11.64;78.96;102109.84;5095792;28;20495;-70
2023/09/25 05:57:14;;;;;;;9.27;2.97;;;;;;;11.67;78.93;102112.19;5095283;28;20033;-71
2023/09/25 05:59:40;;;;;;;6.80;3.30;;;;;;;11.70;78.82;102114.56;5101714;28;20019;-70
2023/09/25 06:02:07;;;;;;;5.20;3.03;;;;;;;11.72;78.74;102112.59;5086431;28;20051;-71
2023/09/25 06:04:35;;;;;;;4.70;3.00;;;;;;;11.73;78.57;102119.59;5100498;28;20050;-70
2023/09/25 06:07:00;;;;;;;5.03;3.03;;;;;;;11.74;78.46;102123.09;5095276;28;20091;-71
2023/09/25 06:09:26;;;;;;;7.57;2.80;;;;;;;11.76;78.83;102115.78;5104906;28;20381;-71
2023/09/25 06:11:51;;;;;;;4.82;2.78;;;;;;;11.82;78.92;102123.22;5094923;28;20501;-70
2023/09/25 06:14:16;;;;;;;4.90;2.97;;;;;;;11.86;78.54;102116.63;5094683;28;20023;-71
2023/09/25 06:16:42;;;;;;;4.70;3.10;;;;;;;11.91;78.51;102113.53;5096108;28;20023;-71
2023/09/25 06:19:08;;;;;;;5.35;3.30;;;;;;;11.91;78.69;102113.53;5101314;28;20038;-70
2023/09/25 06:21:33;;;;;;;5.90;3.20;;;;;;;11.95;78.22;102113.06;5088203;28;20517;-71
2023/09/25 06:23:59;;;;;;;5.57;2.92;;;;;;;11.99;78.55;102114.44;5081686;28;20028;-71
2023/09/25 06:26:27;;;;;;;5.57;3.25;;;;;;;12.03;78.36;102123.81;5101452;28;20107;-71
2023/09/25 06:28:53;;;;;;;6.32;3.10;;;;;;;12.04;78.37;102117.50;5103082;28;20162;-70
2023/09/25 06:31:19;;;;;;;4.75;3.15;;;;;;;12.09;78.10;102119.72;5101357;28;20022;-71
2023/09/25 06:33:45;;;;;;;4.05;3.10;;;;;;;12.13;78.02;102117.59;5085158;28;20012;-71
2023/09/25 06:36:10;;;;;;;5.68;2.97;;;;;;;12.16;78.07;102112.00;5097869;28;20525;-71
2023/09/25 06:38:35;;;;;;;5.97;3.33;;;;;;;12.23;77.69;102121.03;5094487;28;20034;-71
2023/09/25 06:41:01;;;;;;;6.32;2.75;;;;;;;12.29;77.64;102121.28;5085418;28;20401;-71
2023/09/25 06:43:27;;;;;;;5.10;3.10;;;;;;;12.37;77.85;102124.00;5095423;28;20022;-71
2023/09/25 06:45:52;;;;;;;11.68;3.72;;;;;;;12.46;78.14;102121.47;5083687;28;20020;-71
2023/09/25 06:48:18;;;;;;;5.85;2.92;;;;;;;12.54;77.65;102121.53;5097189;28;20073;-71
2023/09/25 06:50:43;;;;;;;7.88;3.53;;;;;;;12.57;77.21;102131.88;5083638;28;20019;-71
2023/09/25 06:53:09;;;;;;;4.78;3.00;;;;;;;12.61;77.29;102126.09;5091206;28;20087;-71
2023/09/25 06:55:35;;;;;;;5.57;3.03;;;;;;;12.66;76.91;102133.63;5095770;28;20024;-71
2023/09/25 06:58:00;;;;;;;6.30;3.20;;;;;;;12.74;77.08;102127.56;5102566;28;20030;-71
2023/09/25 07:00:25;;;;;;;5.40;3.20;;;;;;;12.79;76.56;102127.94;5095757;28;20030;-71
2023/09/25 07:02:51;;;;;;;5.63;3.17;;;;;;;12.84;76.77;102130.97;5096882;28;20016;-71
2023/09/25 07:05:17;;;;;;;5.72;3.38;;;;;;;12.87;76.78;102126.16;5102216;28;20019;-71
2023/09/25 07:07:42;;;;;;;6.65;3.40;;;;;;;12.93;76.59;102132.69;5094254;28;20045;-71
2023/09/25 07:10:09;;;;;;;6.47;3.20;;;;;;;12.99;76.30;102132.91;5096399;28;20078;-71
2023/09/25 07:12:35;;;;;;;7.35;3.20;;;;;;;13.10;76.33;102129.19;5086116;28;20012;-71
2023/09/25 07:15:02;;;;;;;5.20;3.28;;;;;;;13.14;76.16;102122.53;5092004;28;20112;-71
2023/09/25 07:17:27;;;;;;;7.43;3.13;;;;;;;13.18;75.58;102115.91;5085432;28;20020;-71
2023/09/25 07:19:55;;;;;;;6.10;3.20;;;;;;;13.28;75.41;102121.16;5094376;28;20081;-71
2023/09/25 07:22:21;;;;;;;5.75;3.38;;;;;;;13.36;75.21;102136.38;5093721;28;20020;-71
2023/09/25 07:24:46;;;;;;;5.32;3.35;;;;;;;13.43;75.53;102124.94;5083874;28;20023;-71
2023/09/25 07:27:11;;;;;;;7.53;3.47;;;;;;;13.49;74.93;102118.13;5096485;28;20028;-71
2023/09/25 07:29:37;;;;;;;6.30;3.33;;;;;;;13.61;75.06;102124.88;5088067;28;20411;-71
2023/09/25 07:32:03;;;;;;;6.20;3.20;;;;;;;13.68;74.66;102128.56;5086201;28;20420;-71
2023/09/25 07:34:29;;;;;;;5.45;3.15;;;;;;;13.75;74.30;102115.41;5088787;28;20023;-71
2023/09/25 07:36:54;;;;;;;8.55;3.28;;;;;;;13.86;74.34;102121.28;5094871;28;20030;-71
2023/09/25 07:39:22;;;;;;;7.85;3.30;;;;;;;13.96;73.93;102123.84;5105188;28;20020;-71
2023/09/25 07:41:49;;;;;;;5.82;2.92;;;;;;;14.04;74.14;102120.38;5088542;28;20054;-71
2023/09/25 07:44:16;;;;;;;5.03;2.72;;;;;;;14.12;74.20;102118.53;5100246;28;20034;-71
2023/09/25 07:46:41;;;;;;;5.68;2.80;;;;;;;14.17;73.61;102118.09;5096913;28;20051;-71
2023/09/25 07:49:06;;;;;;;5.80;2.72;;;;;;;14.24;73.30;102127.13;5099294;28;20024;-71
2023/09/25 07:51:32;;;;;;;6.30;2.80;;;;;;;14.27;72.88;102106.25;5085340;28;20016;-71
2023/09/25 07:53:58;;;;;;;6.05;2.88;;;;;;;14.35;72.24;102117.94;5083510;28;20020;-71
2023/09/25 07:56:24;;;;;;;4.32;2.78;;;;;;;14.46;72.63;102115.00;5096991;28;20043;-71
2023/09/25 07:58:50;;;;;;;7.13;2.70;;;;;;;14.50;72.44;102121.69;5096759;28;20016;-71
2023/09/25 08:01:15;;;;;;;4.55;2.65;;;;;;;14.56;71.94;102118.34;5098695;28;20022;-71
2023/09/25 08:03:40;;;;;;;3.88;2.50;;;;;;;14.64;72.10;102117.53;5090088;28;20104;-71
2023/09/25 08:06:06;;;;;;;7.97;2.80;;;;;;;14.70;71.55;102124.88;5088854;28;20028;-71
2023/09/25 08:08:34;;;;;;;4.85;2.85;;;;;;;14.80;71.81;102133.59;5098741;28;20055;-71
2023/09/25 08:11:00;;;;;;;6.22;2.80;;;;;;;14.87;72.08;102126.56;5099996;28;20062;-71
2023/09/25 08:13:25;;;;;;;4.05;2.30;;;;;;;14.92;71.40;102129.56;5104961;28;20043;-71
2023/09/25 08:15:51;;;;;;;5.25;2.50;;;;;;;14.97;71.24;102123.72;5089417;28;20016;-71
2023/09/25 08:18:16;;;;;;;8.10;2.40;;;;;;;15.06;71.43;102128.91;5087995;28;20031;-71
2023/09/25 08:20:41;;;;;;;6.07;2.28;;;;;;;15.12;70.90;102128.22;5095392;28;20032;-72
2023/09/25 08:23:09;;;;;;;3.17;1.98;;;;;;;15.21;71.09;102125.53;5080403;28;20029;-71
2023/09/25 08:25:34;;;;;;;3.47;2.28;;;;;;;15.28;70.45;102124.66;5091519;28;20069;-71
2023/09/25 08:28:00;;;;;;;4.95;2.20;;;;;;;15.36;70.06;102124.69;5095176;28;20024;-71
2023/09/25 08:30:25;;;;;;;6.18;2.30;;;;;;;15.42;69.53;102123.16;5104358;28;20549;-71
2023/09/25 08:32:51;;;;;;;4.25;2.03;;;;;;;15.48;69.36;102119.78;5090743;28;20027;-71
2023/09/25 08:35:16;;;;;;;5.53;2.47;;;;;;;15.53;68.68;102116.59;5096768;28;20685;-71
2023/09/25 08:37:42;;;;;;;4.80;2.30;;;;;;;15.63;69.58;102115.44;5094809;28;20100;-71
2023/09/25 08:40:09;;;;;;;4.63;2.20;;;;;;;15.71;68.66;102112.72;5090341;28;20027;-71
2023/09/25 08:42:34;;;;;;;4.50;2.15;;;;;;;15.82;68.59;102114.19;5098902;28;20019;-72
2023/09/25 08:45:02;;;;;;;6.30;2.20;;;;;;;15.87;68.47;102101.09;5088135;28;20370;-71
2023/09/25 08:47:28;;;;;;;4.95;2.15;;;;;;;15.96;68.35;102093.88;5101765;28;20035;-71
2023/09/25 08:49:53;;;;;;;3.20;1.90;;;;;;;16.06;67.99;102099.84;5100909;28;20038;-72
2023/09/25 08:52:21;;;;;;;8.45;2.17;;;;;;;16.19;67.86;102099.25;5083399;28;20501;-71
2023/09/25 08:54:48;;;;;;;3.30;1.85;;;;;;;16.29;67.40;102099.88;5096450;28;20090;-72
2023/09/25 08:57:14;;;;;;;7.18;2.25;;;;;;;16.32;66.71;102095.00;5101427;28;20024;-71
2023/09/25 08:59:39;;;;;;;2.88;2.10;;;;;;;16.41;66.45;102101.13;5096123;28;20016;-72
2023/09/25 09:02:08;;;;;;;3.10;1.80;;;;;;;16.47;65.90;102100.41;5089219;28;20012;-72
2023/09/25 09:04:35;;;;;;;5.85;1.95;;;;;;;16.52;65.41;102094.53;5104686;28;20107;-71
2023/09/25 09:07:01;;;;;;;4.57;1.92;;;;;;;16.61;64.55;102102.31;5099353;28;20557;-72
2023/09/25 09:09:26;;;;;;;4.20;2.00;;;;;;;16.70;64.74;102089.72;5103165;28;20091;-71
2023/09/25 09:11:52;;;;;;;4.63;1.95;;;;;;;16.77;64.38;102106.78;5101881;27;20051;-72
2023/09/25 09:14:35;;;;;;;5.32;1.85;;;;;;;16.81;64.30;102108.06;5099750;28;20019;-72
2023/09/25 09:17:05;;;;;;;4.95;1.90;;;;;;;16.97;64.01;102115.13;5100539;28;20022;-72
2023/09/25 09:19:35;;;;;;;4.32;2.15;;;;;;;17.01;63.26;102108.38;5096827;28;20020;-71
2023/09/25 09:22:05;;;;;;;3.58;2.10;;;;;;;17.02;63.33;102107.38;5091047;27;20020;-71
2023/09/25 09:24:38;;;;;;;4.35;1.75;;;;;;;17.09;63.28;102115.56;5084583;28;20053;-72
2023/09/25 09:27:07;;;;;;;4.78;1.83;;;;;;;17.09;63.16;102116.38;5095291;28;20107;-72
2023/09/25 09:29:36;;;;;;;3.38;1.98;;;;;;;17.06;62.81;102115.88;5091607;28;20032;-72
2023/09/25 09:32:03;;;;;;;4.65;2.30;;;;;;;17.05;62.64;102109.69;5093124;28;20047;-72
2023/09/25 09:34:28;;;;;;;4.35;2.13;;;;;;;17.09;63.06;102102.97;5087202;28;20020;-71
2023/09/25 09:36:54;;;;;;;4.22;2.22;;;;;;;17.15;62.46;102098.72;5086580;28;20075;-71
2023/09/25 09:39:22;;;;;;;3.85;2.13;;;;;;;17.20;62.46;102097.13;5094876;28;20017;-71
2023/09/25 09:41:51;;;;;;;3.35;2.08;;;;;;;17.30;62.33;102110.28;5095693;28;20024;-71
2023/09/25 09:44:17;;;;;;;6.47;2.38;;;;;;;17.36;62.48;102106.06;5088665;28;20563;-71
2023/09/25 09:46:44;;;;;;;5.50;2.10;;;;;;;17.54;62.95;102111.88;5089833;28;20024;-71
2023/09/25 09:49:19;;;;;;;3.65;2.13;;;;;;;17.64;62.49;102113.28;5092917;28;20024;-72
2023/09/25 09:51:45;;;;;;;4.38;1.92;;;;;;;17.71;62.93;102115.25;5092628;28;20027;-72
2023/09/25 09:54:13;;;;;;;3.72;2.00;;;;;;;17.72;62.00;102122.28;5090608;28;20095;-72
2023/09/25 09:56:39;;;;;;;4.65;2.30;;;;;;;17.67;61.68;102122.84;5101010;28;20046;-72
2023/09/25 09:59:06;;;;;;;3.40;2.00;;;;;;;17.65;61.44;102120.31;5094754;28;20032;-72
2023/09/25 10:01:33;;;;;;;6.32;2.00;;;;;;;17.67;61.84;102119.31;5099635;28;20016;-72
2023/09/25 10:04:03;;;;;;;2.67;2.00;;;;;;;17.73;62.33;102114.03;5089768;28;20054;-72
2023/09/25 10:06:29;;;;;;;3.85;2.00;;;;;;;17.82;62.06;102125.50;5097153;28;20024;-72
2023/09/25 10:09:21;;;;;;;3.08;1.85;;;;;;;17.76;61.21;102112.84;5094001;28;20035;-72
2023/09/25 10:11:48;;;;;;;4.63;1.90;;;;;;;17.81;61.63;102116.63;5080354;28;20525;-72
2023/09/25 10:14:20;;;;;;;4.82;1.90;;;;;;;17.87;61.77;102123.09;5098898;28;20029;-72
2023/09/25 10:16:52;;;;;;;3.42;1.90;;;;;;;17.88;61.52;102119.38;5097358;28;20096;-72
2023/09/25 10:19:21;;;;;;;8.18;2.30;;;;;;;17.92;61.56;102117.97;5100810;28;20101;-72
2023/09/25 10:22:06;;;;;;;3.28;1.92;;;;;;;17.94;61.73;102106.06;5105384;28;20057;-72
2023/09/25 10:24:33;;;;;;;5.97;2.20;;;;;;;18.00;62.13;102109.84;5079896;28;20141;-72
2023/09/25 10:26:59;;;;;;;3.30;2.00;;;;;;;18.06;62.42;102110.94;5090464;28;20024;-72
2023/09/25 10:29:24;;;;;;;5.90;2.60;;;;;;;18.14;61.77;102118.88;5088694;28;20035;-72
2023/09/25 10:31:49;;;;;;;4.63;1.92;;;;;;;18.25;62.39;102115.72;5088057;28;20028;-72
2023/09/25 10:34:15;;;;;;;6.50;2.20;;;;;;;18.32;62.17;102115.78;5105375;28;20019;-72
2023/09/25 10:36:42;;;;;;;7.50;2.25;;;;;;;18.46;62.30;102129.16;5091431;28;20078;-72
2023/09/25 10:39:08;;;;;;;5.07;2.20;;;;;;;18.45;61.44;102130.19;5099018;28;20102;-72
2023/09/25 10:41:35;;;;;;;5.25;2.00;;;;;;;18.38;61.51;102120.41;5095336;28;20031;-72
2023/09/25 10:44:00;;;;;;;5.03;1.90;;;;;;;18.38;61.22;102120.41;5090362;28;20553;-72
2023/09/25 10:46:26;;;;;;;4.72;2.30;;;;;;;18.46;61.49;102120.25;5095081;28;20103;-72
2023/09/25 10:48:54;;;;;;;4.88;1.98;;;;;;;18.51;61.74;102104.41;5092755;28;20515;-71
2023/09/25 10:51:20;;;;;;;5.72;2.42;;;;;;;18.56;62.00;102107.34;5099155;28;20015;-72
2023/09/25 10:53:45;;;;;;;3.85;1.90;;;;;;;18.55;61.87;102108.38;5092859;28;20556;-72
2023/09/25 10:56:11;;;;;;;5.50;2.10;;;;;;;18.65;61.96;102108.06;5090847;28;20086;-72
2023/09/25 10:58:37;;;;;;;4.68;2.20;;;;;;;18.68;61.39;102121.13;5098244;28;20015;-69
2023/09/25 11:01:04;;;;;;;6.10;2.30;;;;;;;18.73;61.86;102124.06;5090126;28;20032;-72
2023/09/25 11:03:31;;;;;;;6.45;2.10;;;;;;;18.77;61.88;102128.03;5095973;28;20026;-73
2023/09/25 11:05:58;;;;;;;4.28;2.00;;;;;;;18.77;61.33;102128.88;5097690;28;20123;-73
2023/09/25 11:08:26;;;;;;;5.00;2.40;;;;;;;18.90;61.36;102130.03;5095781;28;20043;-72
2023/09/25 11:10:52;;;;;;;4.53;2.05;;;;;;;18.99;61.61;102120.78;5099120;28;20079;-71
2023/09/25 11:13:18;;;;;;;4.38;1.90;;;;;;;19.01;61.54;102111.50;5090650;28;20534;-71
2023/09/25 11:15:45;;;;;;;4.57;2.13;;;;;;;19.10;61.01;102115.72;5089509;28;20012;-72
2023/09/25 11:18:11;;;;;;;5.07;2.25;;;;;;;19.09;60.46;102122.13;5085082;28;20031;-73
2023/09/25 11:20:37;;;;;;;4.43;1.90;;;;;;;19.12;60.42;102124.44;5098369;28;20408;-72